To NAV CANADA Home Page Login to a new session Search on AWWS site Feedback and Comments Disclaimer Vers la page française équivalente Tips FAQ What's new on the site To the Forecasts and Observations / NOTAM section To "File a Flight Plan" website Publications and other links Update of the User's profile FIC Telephone Numbers My Weather Data Folder Route Weather Data Regional Weather Data Local Weather Data To the Forecasts and Observations / NOTAM section
Request Generated 09/02/2015 at 14:46:17 UTC . Weather information available at that time is displayed.

METAR/TAF

GRANDE PRAIRIE/AB    

SPECI CYQU 021435Z CCA 04004KT 25SM FEW017 SCT039 BKN070 BKN210 09/07
A2959 RMK SC2SC2AC1CI1 CVCTV CLD ASOCTD SLP033 DENSITY ALT 2300FT=
SPECI CYQU 021435Z 04004KT 25SM FEW017 SCT039 BKN070 BKN210 09/07
A2959 RMK SC2SC2AC1CI1 SLP033 DENSITY ALT 2300FT=
METAR CYQU 021400Z 06004KT 25SM -SHRA SCT017 BKN039 BKN070 08/07
A2959 RMK SC3SC2AC2 CVCTV CLD EMBD SLP033 DENSITY ALT 2200FT=
METAR CYQU 021300Z 05007KT 25SM FEW018 BKN078 OVC120 08/06 A2957 RMK
SC2AC5AC1 VIRGA SLP026 DENSITY ALT 2200FT=
METAR CYQU 021200Z 06004KT 25SM BKN120 BKN200 07/06 A2957 RMK AC5CI2
SLP024=

TAF CYQU 021238Z 0213/0301 06005KT P6SM BKN080 TEMPO 0213/0216 P6SM
-RA
FM021600 08008KT P6SM -RA SCT030 OVC060 TEMPO 0216/0301 5SM -SHRA
BR SCT020 BKN030 OVC080
BECMG 0219/0221 04015G25KT
RMK NXT FCST BY 021900Z=
Your time UTC time
Weather data provided by Environment Canada and NAV CANADA